Time;durP1;ratioP1;P1;durP2;ratioP2;P2;SDS_P1;SDS_P2;PMS_P1;PMS_P2;Temp;Humidity;BMP_temperature;BMP_pressure;BME280_temperature;BME280_humidity;BME280_pressure;Samples;Min_cycle;Max_cycle;Signal;HPM_P1;HPM_P2
2024/03/09 00:00:27;;;;;;;23.15;13.95;;;;;;;-146.18;100.00;67994.34;10356577;27;20040;-72
2024/03/09 00:05:24;;;;;;;27.08;14.43;;;;;;;-146.18;100.00;67994.34;10355140;27;20385;-72
2024/03/09 00:10:28;;;;;;;26.40;14.00;;;;;;;-146.18;100.00;67994.34;10356293;27;20040;-72
2024/03/09 00:15:26;;;;;;;21.83;13.27;;;;;;;-146.18;100.00;67994.34;10354449;27;20740;-70
2024/03/09 00:20:27;;;;;;;22.95;13.45;;;;;;;-146.18;100.00;67994.34;10357532;27;20047;-72
2024/03/09 00:25:28;;;;;;;25.33;14.68;;;;;;;-146.18;100.00;67994.34;10345097;28;20037;-72
2024/03/09 00:30:29;;;;;;;23.77;13.95;;;;;;;-146.18;100.00;67994.34;10351527;27;20461;-72
2024/03/09 00:35:27;;;;;;;24.97;14.67;;;;;;;-146.18;100.00;67994.34;10351446;28;20052;-73
2024/03/09 00:40:28;;;;;;;28.10;15.23;;;;;;;-146.18;100.00;67994.34;10346154;27;20073;-72
2024/03/09 00:45:25;;;;;;;23.60;14.35;;;;;;;-146.18;100.00;67994.34;10352515;27;20135;-72
2024/03/09 00:50:24;;;;;;;23.10;13.90;;;;;;;-146.18;100.00;67994.34;10345505;27;20048;-72
2024/03/09 00:55:22;;;;;;;24.45;14.15;;;;;;;-146.18;100.00;67994.34;10345965;27;20048;-72
2024/03/09 01:00:19;;;;;;;27.05;14.43;;;;;;;-146.18;100.00;67994.34;10355103;27;20052;-72
2024/03/09 01:05:19;;;;;;;25.15;14.15;;;;;;;-146.18;100.00;67994.34;10357473;27;20067;-72
2024/03/09 01:10:16;;;;;;;25.95;14.10;;;;;;;-146.18;100.00;67994.34;10350139;27;20075;-72
2024/03/09 01:15:13;;;;;;;22.77;14.10;;;;;;;-146.18;100.00;67994.34;10338535;27;20044;-72
2024/03/09 01:20:10;;;;;;;31.15;14.88;;;;;;;-146.18;100.00;67994.34;10356773;27;20051;-72
2024/03/09 01:25:07;;;;;;;26.52;13.60;;;;;;;-146.18;100.00;67994.34;10347707;27;20055;-73
2024/03/09 01:30:05;;;;;;;26.20;14.82;;;;;;;-146.18;100.00;67994.34;10348032;28;20102;-72
2024/03/09 01:35:02;;;;;;;23.80;14.82;;;;;;;-146.18;100.00;67994.34;10350566;27;20051;-72
2024/03/09 01:39:59;;;;;;;27.23;14.68;;;;;;;-146.18;100.00;67994.34;10346022;28;20048;-72
2024/03/09 01:44:58;;;;;;;23.77;13.77;;;;;;;-146.18;100.00;67994.34;10351560;27;20044;-72
2024/03/09 01:49:56;;;;;;;22.42;13.30;;;;;;;-146.18;100.00;67994.34;10353008;27;20051;-72
2024/03/09 01:54:54;;;;;;;25.52;13.98;;;;;;;-146.18;100.00;67994.34;10350662;28;20407;-72
2024/03/09 01:59:55;;;;;;;27.42;14.35;;;;;;;-146.18;100.00;67994.34;10342616;28;20051;-72
2024/03/09 02:04:52;;;;;;;22.87;12.47;;;;;;;-146.18;100.00;67994.34;10356431;27;20466;-72
2024/03/09 02:09:49;;;;;;;25.77;14.80;;;;;;;-146.18;100.00;67994.34;10352696;28;20076;-72
2024/03/09 02:14:45;;;;;;;23.92;14.88;;;;;;;-146.18;100.00;67994.34;10342676;27;20742;-72
2024/03/09 02:19:42;;;;;;;27.55;15.48;;;;;;;-146.18;100.00;67994.34;10354577;27;20476;-72
2024/03/09 02:24:40;;;;;;;26.15;14.23;;;;;;;-146.18;100.00;67994.34;10355679;28;20048;-72
2024/03/09 02:29:38;;;;;;;23.23;14.35;;;;;;;-146.18;100.00;67994.34;10359364;28;20039;-72
2024/03/09 02:34:35;;;;;;;25.45;15.75;;;;;;;-146.18;100.00;67994.34;10361643;27;20056;-71
2024/03/09 02:39:32;;;;;;;24.85;15.77;;;;;;;-146.18;100.00;67994.34;10353585;27;20066;-72
2024/03/09 02:44:28;;;;;;;29.27;14.50;;;;;;;-146.18;100.00;67994.34;10355154;27;20073;-72
2024/03/09 02:49:25;;;;;;;27.77;15.43;;;;;;;-146.18;100.00;67994.34;10356052;27;20093;-71
2024/03/09 02:54:23;;;;;;;27.05;15.63;;;;;;;-146.18;100.00;67994.34;10348237;27;20044;-71
2024/03/09 02:59:19;;;;;;;28.80;16.42;;;;;;;-146.18;100.00;67994.34;10356629;27;20040;-72
2024/03/09 03:04:16;;;;;;;29.17;16.63;;;;;;;-146.18;100.00;67994.34;10356474;27;20044;-72
2024/03/09 03:09:15;;;;;;;26.45;16.00;;;;;;;-146.18;100.00;67994.34;10357569;27;20048;-72
2024/03/09 03:14:12;;;;;;;31.95;16.92;;;;;;;-146.18;100.00;67994.34;10354539;27;20105;-72
2024/03/09 03:19:09;;;;;;;30.23;17.17;;;;;;;-146.18;100.00;67994.34;10356110;27;20404;-72
2024/03/09 03:24:09;;;;;;;27.73;16.55;;;;;;;-146.18;100.00;67994.34;10351523;27;20479;-72
2024/03/09 03:29:05;;;;;;;26.80;16.42;;;;;;;-146.18;100.00;67994.34;10358509;27;20518;-72
2024/03/09 03:34:02;;;;;;;37.88;17.88;;;;;;;-146.18;100.00;67994.34;10352581;27;20063;-72
2024/03/09 03:39:00;;;;;;;27.98;16.13;;;;;;;-146.18;100.00;67994.34;10346103;27;20051;-72
2024/03/09 03:43:57;;;;;;;30.35;17.13;;;;;;;-146.18;100.00;67994.34;10352462;28;20049;-71
2024/03/09 03:48:53;;;;;;;26.55;17.00;;;;;;;-146.18;100.00;67994.34;10353710;27;20077;-72
2024/03/09 03:53:50;;;;;;;31.88;17.55;;;;;;;-146.18;100.00;67994.34;10350929;27;20538;-72
2024/03/09 03:58:47;;;;;;;33.63;18.80;;;;;;;-146.18;100.00;67994.34;10353009;27;20044;-72
2024/03/09 04:03:43;;;;;;;33.08;17.25;;;;;;;-146.18;100.00;67994.34;10346491;27;20443;-72
2024/03/09 04:08:39;;;;;;;29.63;17.92;;;;;;;-146.18;100.00;67994.34;10344172;27;20079;-72
2024/03/09 04:13:36;;;;;;;26.30;17.55;;;;;;;-146.18;100.00;67994.34;10355764;27;20036;-71
2024/03/09 04:18:33;;;;;;;26.38;17.65;;;;;;;-146.18;100.00;67994.34;10339022;27;20040;-71
2024/03/09 04:23:30;;;;;;;29.27;18.92;;;;;;;-146.18;100.00;67994.34;10357422;27;20043;-72
2024/03/09 04:28:27;;;;;;;30.92;18.48;;;;;;;-146.18;100.00;67994.34;10356693;27;20047;-72
2024/03/09 04:33:25;;;;;;;34.72;19.80;;;;;;;-146.18;100.00;67994.34;10355233;27;20046;-72
2024/03/09 04:38:23;;;;;;;33.47;19.15;;;;;;;-146.18;100.00;67994.34;10353874;27;20130;-71
2024/03/09 04:43:19;;;;;;;31.05;20.00;;;;;;;-146.18;100.00;67994.34;10358536;27;20040;-72
2024/03/09 04:48:16;;;;;;;31.45;20.13;;;;;;;-146.18;100.00;67994.34;10354909;27;20051;-72
2024/03/09 04:53:13;;;;;;;32.08;19.33;;;;;;;-146.18;100.00;67994.34;10354997;27;20040;-72
2024/03/09 04:58:17;;;;;;;34.60;20.95;;;;;;;-146.18;100.00;67994.34;10346466;27;20048;-72
2024/03/09 05:03:13;;;;;;;35.28;20.35;;;;;;;-146.18;100.00;67994.34;10352019;27;20039;-72
2024/03/09 05:08:11;;;;;;;36.00;20.73;;;;;;;-146.18;100.00;67994.34;10368338;27;20044;-72
2024/03/09 05:13:08;;;;;;;31.65;20.98;;;;;;;-146.18;100.00;67994.34;10353931;27;20043;-72
2024/03/09 05:18:10;;;;;;;36.83;21.95;;;;;;;-146.18;100.00;67994.34;10343422;27;20044;-72
2024/03/09 05:23:09;;;;;;;41.45;22.02;;;;;;;-146.18;100.00;67994.34;10351166;28;20032;-72
2024/03/09 05:28:12;;;;;;;32.28;19.83;;;;;;;-146.18;100.00;67994.34;10350667;28;20622;-72
2024/03/09 05:33:11;;;;;;;32.17;21.05;;;;;;;-146.18;100.00;67994.34;10349822;27;20155;-73
2024/03/09 05:38:09;;;;;;;38.30;21.23;;;;;;;-146.18;100.00;67994.34;10354693;27;20048;-73
2024/03/09 05:43:09;;;;;;;38.10;22.55;;;;;;;-146.18;100.00;67994.34;10351705;27;20061;-73
2024/03/09 05:48:07;;;;;;;35.92;21.98;;;;;;;-146.18;100.00;67994.34;10349378;28;20180;-72
2024/03/09 05:53:04;;;;;;;35.70;22.92;;;;;;;-146.18;100.00;67994.34;10374470;27;20126;-72
2024/03/09 05:58:01;;;;;;;34.88;23.13;;;;;;;-146.18;100.00;67994.34;10354356;28;20507;-72
2024/03/09 06:03:01;;;;;;;36.42;23.30;;;;;;;-146.18;100.00;67994.34;10356272;27;20045;-72
2024/03/09 06:07:58;;;;;;;34.35;22.92;;;;;;;-146.18;100.00;67994.34;10356234;27;20043;-72
2024/03/09 06:12:55;;;;;;;41.47;22.85;;;;;;;-146.18;100.00;67994.34;10351754;28;20685;-72
2024/03/09 06:17:56;;;;;;;37.00;22.90;;;;;;;-146.18;100.00;67994.34;10359982;27;20062;-72
2024/03/09 06:22:54;;;;;;;38.77;24.03;;;;;;;-146.18;100.00;67994.34;10356796;27;20142;-71
2024/03/09 06:27:55;;;;;;;37.50;23.65;;;;;;;-146.18;100.00;67994.34;10361444;28;20097;-72
2024/03/09 06:32:53;;;;;;;38.20;23.73;;;;;;;-146.18;100.00;67994.34;10357209;27;20052;-72
2024/03/09 06:37:58;;;;;;;38.75;24.08;;;;;;;-146.18;100.00;67994.34;10365262;27;20077;-72
2024/03/09 06:42:58;;;;;;;38.05;23.48;;;;;;;-146.18;100.00;67994.34;10354354;28;20059;-72
2024/03/09 06:47:57;;;;;;;38.33;23.63;;;;;;;-146.18;100.00;67994.34;10355047;27;20063;-72
2024/03/09 06:52:55;;;;;;;43.72;25.67;;;;;;;-146.18;100.00;67994.34;10357385;28;20050;-72
2024/03/09 06:57:53;;;;;;;39.90;25.05;;;;;;;-146.18;100.00;67994.34;10355242;27;20087;-72
2024/03/09 07:02:52;;;;;;;39.33;24.80;;;;;;;-146.18;100.00;67994.34;10356225;27;20428;-72
2024/03/09 07:07:48;;;;;;;40.85;25.45;;;;;;;-146.18;100.00;67994.34;10365252;27;20055;-72
2024/03/09 07:12:45;;;;;;;41.53;24.30;;;;;;;-146.18;100.00;67994.34;10351463;27;20044;-73
2024/03/09 07:17:46;;;;;;;35.30;23.95;;;;;;;-146.18;100.00;67994.34;10368632;27;20036;-71
2024/03/09 07:22:50;;;;;;;40.80;24.85;;;;;;;-146.18;100.00;67994.34;10356447;27;20048;-72
2024/03/09 07:27:48;;;;;;;41.53;24.70;;;;;;;-146.18;100.00;67994.34;10360737;27;20119;-72
2024/03/09 07:32:48;;;;;;;35.90;24.63;;;;;;;-146.18;100.00;67994.34;10358123;27;20139;-72
2024/03/09 07:37:47;;;;;;;37.38;24.05;;;;;;;-146.18;100.00;67994.34;10350689;27;20131;-72
2024/03/09 07:42:44;;;;;;;35.13;24.63;;;;;;;-146.18;100.00;67994.34;10354075;27;20055;-72
2024/03/09 07:47:41;;;;;;;43.13;25.80;;;;;;;-146.18;100.00;67994.34;10348360;27;20049;-72
2024/03/09 07:52:38;;;;;;;43.80;25.02;;;;;;;-146.18;100.00;67994.34;10353524;27;20048;-72
2024/03/09 07:57:34;;;;;;;42.15;25.27;;;;;;;-146.18;100.00;67994.34;10363700;27;20519;-72
2024/03/09 08:02:32;;;;;;;38.97;25.95;;;;;;;-146.18;100.00;67994.34;10345933;27;20056;-72
2024/03/09 08:07:30;;;;;;;36.95;22.65;;;;;;;-146.18;100.00;67994.34;10356906;27;20116;-73
2024/03/09 08:12:27;;;;;;;39.33;25.17;;;;;;;-146.18;100.00;67994.34;10364135;27;20040;-72
2024/03/09 08:17:24;;;;;;;38.17;24.65;;;;;;;-146.18;100.00;67994.34;10359548;27;20055;-72
2024/03/09 08:22:22;;;;;;;40.92;25.85;;;;;;;-146.18;100.00;67994.34;10357540;27;20048;-72
2024/03/09 08:27:18;;;;;;;38.38;24.00;;;;;;;-146.18;100.00;67994.34;10345282;27;20445;-72
2024/03/09 08:32:16;;;;;;;38.92;24.50;;;;;;;-146.18;100.00;67994.34;10353646;28;20044;-72
2024/03/09 08:37:12;;;;;;;41.03;23.33;;;;;;;-146.18;100.00;67994.34;10353252;27;20086;-72
2024/03/09 08:42:09;;;;;;;38.03;23.40;;;;;;;-146.18;100.00;67994.34;10348383;27;20060;-72
2024/03/09 08:47:06;;;;;;;39.58;23.42;;;;;;;-146.18;100.00;67994.34;10354042;27;20508;-72
2024/03/09 08:52:03;;;;;;;36.17;23.92;;;;;;;-146.18;100.00;67994.34;10356587;27;20089;-72
2024/03/09 08:57:00;;;;;;;36.47;22.02;;;;;;;-146.18;100.00;67994.34;10352418;27;20048;-72
2024/03/09 09:01:56;;;;;;;31.30;20.85;;;;;;;-146.18;100.00;67994.34;10338233;28;20054;-72
2024/03/09 09:06:54;;;;;;;34.13;22.58;;;;;;;-146.18;100.00;67994.34;10338698;27;20056;-72
2024/03/09 09:11:51;;;;;;;35.28;22.13;;;;;;;-146.18;100.00;67994.34;10336234;27;20461;-72
2024/03/09 09:16:48;;;;;;;35.90;22.17;;;;;;;-146.18;100.00;67994.34;10347691;27;20101;-71
2024/03/09 09:21:44;;;;;;;33.53;20.30;;;;;;;-146.18;100.00;67994.34;10357559;27;20044;-72
2024/03/09 09:26:42;;;;;;;36.15;21.90;;;;;;;-146.18;100.00;67994.34;10348054;27;20062;-72
2024/03/09 09:31:38;;;;;;;33.05;21.05;;;;;;;-146.18;100.00;67994.34;10351839;28;20040;-72
2024/03/09 09:36:35;;;;;;;34.42;22.65;;;;;;;-146.18;100.00;67994.34;10343522;27;20075;-72
2024/03/09 09:41:32;;;;;;;34.92;21.33;;;;;;;-146.18;100.00;67994.34;10350220;27;20040;-71
2024/03/09 09:46:29;;;;;;;30.45;19.92;;;;;;;-146.18;100.00;67994.34;10337910;27;20044;-72
2024/03/09 09:51:26;;;;;;;29.77;20.10;;;;;;;-146.18;100.00;67994.34;10357447;27;20052;-72
2024/03/09 09:56:23;;;;;;;36.45;21.02;;;;;;;-146.18;100.00;67994.34;10348937;27;20044;-72
2024/03/09 10:01:23;;;;;;;30.52;20.35;;;;;;;-146.18;100.00;67994.34;10337208;28;20075;-72
2024/03/09 10:06:21;;;;;;;31.15;19.45;;;;;;;-146.18;100.00;67994.34;10341608;27;20040;-72
2024/03/09 10:11:20;;;;;;;30.17;18.75;;;;;;;-146.18;100.00;67994.34;10343807;27;20050;-72
2024/03/09 10:16:26;;;;;;;28.02;17.58;;;;;;;-146.18;100.00;67994.34;10352780;27;20076;-73
2024/03/09 10:21:33;;;;;;;27.65;18.52;;;;;;;-146.18;100.00;67994.34;10346607;27;20044;-72
2024/03/09 10:26:36;;;;;;;24.98;16.45;;;;;;;-146.18;100.00;67994.34;10343305;27;20213;-72
2024/03/09 10:31:35;;;;;;;29.08;18.80;;;;;;;-146.18;100.00;67994.34;10353920;27;20047;-72
2024/03/09 10:36:32;;;;;;;25.85;16.55;;;;;;;-146.18;100.00;67994.34;10346116;28;20131;-72
2024/03/09 10:41:29;;;;;;;27.73;17.65;;;;;;;-146.18;100.00;67994.34;10359504;27;20036;-72
2024/03/09 10:46:32;;;;;;;25.58;17.88;;;;;;;-146.18;100.00;67994.34;10357694;27;20094;-72
2024/03/09 10:51:54;;;;;;;26.20;19.05;;;;;;;-146.18;100.00;67994.34;10350970;27;20056;-72
2024/03/09 10:56:52;;;;;;;25.83;17.48;;;;;;;-146.18;100.00;67994.34;10350099;27;20048;-72
2024/03/09 11:01:52;;;;;;;27.27;17.13;;;;;;;-146.18;100.00;67994.34;10360411;27;20381;-72
2024/03/09 11:06:49;;;;;;;25.73;17.55;;;;;;;-146.18;100.00;67994.34;10353574;27;20063;-72
2024/03/09 11:11:47;;;;;;;26.02;17.92;;;;;;;-146.18;100.00;67994.34;10355931;27;20207;-72
2024/03/09 11:16:51;;;;;;;26.95;18.30;;;;;;;-146.18;100.00;67994.34;10351675;27;20044;-72
2024/03/09 11:21:51;;;;;;;26.52;17.92;;;;;;;-146.18;100.00;67994.34;10355419;28;20052;-71
2024/03/09 11:26:52;;;;;;;22.23;17.17;;;;;;;-146.18;100.00;67994.34;10349785;28;20131;-72
2024/03/09 11:32:01;;;;;;;23.38;17.08;;;;;;;-146.18;100.00;67994.34;10355023;27;20565;-73
2024/03/09 11:37:04;;;;;;;23.50;16.70;;;;;;;-146.18;100.00;67994.34;10352992;27;20039;-72
2024/03/09 11:42:08;;;;;;;24.00;15.60;;;;;;;-146.18;100.00;67994.34;10374570;27;20090;-72
2024/03/09 11:47:06;;;;;;;21.33;14.43;;;;;;;-146.18;100.00;67994.34;10355673;27;20043;-72
2024/03/09 11:52:14;;;;;;;19.20;13.90;;;;;;;-146.18;100.00;67994.34;10358312;27;20465;-71
2024/03/09 11:57:10;;;;;;;21.45;15.52;;;;;;;-146.18;100.00;67994.34;10356249;27;20142;-72
2024/03/09 12:02:07;;;;;;;20.80;14.40;;;;;;;-146.18;100.00;67994.34;10358505;27;20084;-72
2024/03/09 12:07:08;;;;;;;24.10;16.05;;;;;;;-146.18;100.00;67994.34;10353695;27;20127;-72
2024/03/09 12:12:13;;;;;;;22.35;14.40;;;;;;;-146.18;100.00;67994.34;10361784;27;20044;-72
2024/03/09 12:17:11;;;;;;;20.38;13.98;;;;;;;-146.18;100.00;67994.34;10354504;27;20043;-73
2024/03/09 12:22:09;;;;;;;24.35;16.15;;;;;;;-146.18;100.00;67994.34;10350761;27;20040;-72
2024/03/09 12:27:08;;;;;;;20.67;14.20;;;;;;;-146.18;100.00;67994.34;10360381;27;20056;-72
2024/03/09 12:32:06;;;;;;;23.83;15.02;;;;;;;-146.18;100.00;67994.34;10343664;28;20048;-72
2024/03/09 12:37:02;;;;;;;23.15;15.13;;;;;;;-146.18;100.00;67994.34;10354799;27;20047;-72
2024/03/09 12:42:02;;;;;;;23.60;14.65;;;;;;;-146.18;100.00;67994.34;10352643;27;20056;-72
2024/03/09 12:46:58;;;;;;;20.88;14.88;;;;;;;-146.18;100.00;67994.34;10347159;27;20040;-70
2024/03/09 12:51:55;;;;;;;17.70;13.20;;;;;;;-146.18;100.00;67994.34;10348222;27;20078;-72
2024/03/09 12:56:54;;;;;;;21.98;15.18;;;;;;;-146.18;100.00;67994.34;10349837;27;20093;-72
2024/03/09 13:01:51;;;;;;;18.98;14.05;;;;;;;-146.18;100.00;67994.34;10350329;27;20101;-72
2024/03/09 13:06:48;;;;;;;16.42;12.95;;;;;;;-146.18;100.00;67994.34;10350248;27;20403;-73
2024/03/09 13:11:46;;;;;;;20.73;14.20;;;;;;;-146.18;100.00;67994.34;10358840;28;20048;-70
2024/03/09 13:16:46;;;;;;;18.30;13.82;;;;;;;-146.18;100.00;67994.34;10357124;27;20051;-71
2024/03/09 13:21:44;;;;;;;19.05;13.80;;;;;;;-146.18;100.00;67994.34;10374397;27;20507;-71
2024/03/09 13:26:41;;;;;;;20.00;15.00;;;;;;;-146.18;100.00;67994.34;10362069;27;20039;-71
2024/03/09 13:31:40;;;;;;;20.65;13.48;;;;;;;-146.18;100.00;67994.34;10368067;27;20044;-72
2024/03/09 13:36:36;;;;;;;22.15;13.25;;;;;;;-146.18;100.00;67994.34;10370977;27;20461;-71
2024/03/09 13:41:32;;;;;;;22.15;14.43;;;;;;;-146.18;100.00;67994.34;10357691;27;20120;-71
2024/03/09 13:46:29;;;;;;;24.92;15.63;;;;;;;-146.18;100.00;67994.34;10367726;27;20036;-71
2024/03/09 13:51:25;;;;;;;20.75;13.65;;;;;;;-146.18;100.00;67994.34;10360877;27;20539;-71
2024/03/09 13:56:28;;;;;;;21.92;14.52;;;;;;;-146.18;100.00;67994.34;10352780;27;20612;-72
2024/03/09 14:01:24;;;;;;;;;;;;;;;-146.18;100.00;67994.34;10361133;27;20044;-71
2024/03/09 14:06:21;;;;;;;22.23;13.65;;;;;;;-146.18;100.00;67994.34;10346509;28;20443;-71
2024/03/09 14:11:18;;;;;;;20.00;13.88;;;;;;;-146.18;100.00;67994.34;10348504;28;20052;-72
2024/03/09 14:16:15;;;;;;;21.38;13.65;;;;;;;-146.18;100.00;67994.34;10382513;27;20503;-71
2024/03/09 14:21:13;;;;;;;17.10;12.77;;;;;;;-146.18;100.00;67994.34;10365577;27;20097;-71
2024/03/09 14:26:12;;;;;;;19.77;12.38;;;;;;;-146.18;100.00;67994.34;10370247;27;20052;-71
2024/03/09 14:31:14;;;;;;;19.23;12.60;;;;;;;-146.18;100.00;67994.34;10362663;28;20048;-70
2024/03/09 14:36:13;;;;;;;17.85;12.75;;;;;;;-146.18;100.00;67994.34;10354098;28;20072;-71
2024/03/09 14:41:09;;;;;;;20.10;12.80;;;;;;;-146.18;100.00;67994.34;10352874;27;20055;-71
2024/03/09 14:46:12;;;;;;;18.30;12.77;;;;;;;-146.18;100.00;67994.34;10357063;27;20150;-72
2024/03/09 14:51:10;;;;;;;21.25;12.93;;;;;;;-146.18;100.00;67994.34;10364823;27;20040;-71
2024/03/09 14:56:07;;;;;;;20.13;13.57;;;;;;;-146.18;100.00;67994.34;10364985;27;20048;-71
2024/03/09 15:01:04;;;;;;;25.05;15.10;;;;;;;-146.18;100.00;67994.34;10373250;27;20059;-71
2024/03/09 15:06:01;;;;;;;22.02;16.15;;;;;;;-146.18;100.00;67994.34;10369395;27;20056;-71
2024/03/09 15:10:58;;;;;;;23.65;15.75;;;;;;;-146.18;100.00;67994.34;10369174;27;20672;-71
2024/03/09 15:15:56;;;;;;;21.35;14.57;;;;;;;-146.18;100.00;67994.34;10353087;27;20083;-71
2024/03/09 15:20:54;;;;;;;24.50;15.60;;;;;;;-146.18;100.00;67994.34;10364052;28;20040;-71
2024/03/09 15:25:51;;;;;;;20.48;15.38;;;;;;;-146.18;100.00;67994.34;10357778;27;20055;-71
2024/03/09 15:30:49;;;;;;;23.55;16.73;;;;;;;-146.18;100.00;67994.34;10352229;27;20047;-72
2024/03/09 15:35:46;;;;;;;27.00;17.13;;;;;;;-146.18;100.00;67994.34;10354298;27;20084;-72
2024/03/09 15:40:42;;;;;;;24.15;15.85;;;;;;;-146.18;100.00;67994.34;10351415;27;20462;-72
2024/03/09 15:45:39;;;;;;;26.77;16.58;;;;;;;-146.18;100.00;67994.34;10353677;27;20064;-71
2024/03/09 15:50:40;;;;;;;29.90;18.52;;;;;;;-146.18;100.00;67994.34;10350249;27;20093;-72
2024/03/09 15:55:36;;;;;;;28.73;17.25;;;;;;;-146.18;100.00;67994.34;10358109;27;20054;-72
2024/03/09 16:00:36;;;;;;;29.25;19.35;;;;;;;-146.18;100.00;67994.34;10352440;27;20043;-72
2024/03/09 16:05:33;;;;;;;29.90;18.77;;;;;;;-146.18;100.00;67994.34;10352633;27;20071;-71
2024/03/09 16:10:30;;;;;;;30.90;19.67;;;;;;;-146.18;100.00;67994.34;10353894;27;20160;-73
2024/03/09 16:15:29;;;;;;;30.85;18.17;;;;;;;-146.18;100.00;67994.34;10357376;27;20494;-71
2024/03/09 16:20:28;;;;;;;26.52;17.17;;;;;;;-146.18;100.00;67994.34;10353675;27;20496;-72
2024/03/09 16:25:29;;;;;;;25.98;17.45;;;;;;;-146.18;100.00;67994.34;10354297;27;20403;-72
2024/03/09 16:30:29;;;;;;;29.35;18.98;;;;;;;-146.18;100.00;67994.34;10356710;27;20089;-71
2024/03/09 16:35:30;;;;;;;33.78;20.67;;;;;;;-146.18;100.00;67994.34;10352984;27;20059;-71
2024/03/09 16:40:31;;;;;;;32.70;19.65;;;;;;;-146.18;100.00;67994.34;10357395;28;20067;-71
2024/03/09 16:45:28;;;;;;;32.45;19.75;;;;;;;-146.18;100.00;67994.34;10349918;27;20439;-71
2024/03/09 16:50:25;;;;;;;31.90;21.05;;;;;;;-146.18;100.00;67994.34;10349893;27;20521;-71
2024/03/09 16:55:22;;;;;;;33.20;21.58;;;;;;;-146.18;100.00;67994.34;10353421;27;20132;-71
2024/03/09 17:00:24;;;;;;;33.47;21.10;;;;;;;-146.18;100.00;67994.34;10346737;27;20499;-72
2024/03/09 17:05:26;;;;;;;32.08;20.38;;;;;;;-146.18;100.00;67994.34;10350389;28;20419;-71
2024/03/09 17:10:22;;;;;;;32.47;20.65;;;;;;;-146.18;100.00;67994.34;10345093;27;20044;-70
2024/03/09 17:15:19;;;;;;;34.40;21.73;;;;;;;-146.18;100.00;67994.34;10350022;28;20641;-69
2024/03/09 17:20:23;;;;;;;32.88;21.60;;;;;;;-146.18;100.00;67994.34;10349864;27;20040;-70
2024/03/09 17:25:24;;;;;;;32.92;20.85;;;;;;;-146.18;100.00;67994.34;10355282;27;20105;-69
2024/03/09 17:30:22;;;;;;;39.45;21.02;;;;;;;-146.18;100.00;67994.34;10347844;27;20107;-71
2024/03/09 17:35:22;;;;;;;36.75;21.25;;;;;;;-146.18;100.00;67994.34;10350357;28;20044;-72
2024/03/09 17:40:19;;;;;;;36.55;22.48;;;;;;;-146.18;100.00;67994.34;10347487;27;20474;-71
2024/03/09 17:45:15;;;;;;;37.03;23.02;;;;;;;-146.18;100.00;67994.34;10352505;27;20044;-71
2024/03/09 17:50:18;;;;;;;35.65;21.83;;;;;;;-146.18;100.00;67994.34;10362678;27;20048;-72
2024/03/09 17:55:17;;;;;;;29.95;20.50;;;;;;;-146.18;100.00;67994.34;10366335;27;20048;-71
2024/03/09 18:00:22;;;;;;;34.67;21.30;;;;;;;-146.18;100.00;67994.34;10359159;27;20044;-72
2024/03/09 18:05:27;;;;;;;36.40;21.15;;;;;;;-146.18;100.00;67994.34;10373996;27;20053;-71
2024/03/09 18:10:25;;;;;;;35.30;23.75;;;;;;;-146.18;100.00;67994.34;10359709;27;20036;-72
2024/03/09 18:15:22;;;;;;;35.55;21.98;;;;;;;-146.18;100.00;67994.34;10361421;27;20044;-72
2024/03/09 18:20:27;;;;;;;32.92;21.52;;;;;;;-146.18;100.00;67994.34;10364159;27;20062;-70
2024/03/09 18:25:24;;;;;;;37.78;23.55;;;;;;;-146.18;100.00;67994.34;10354440;27;20048;-70
2024/03/09 18:30:28;;;;;;;36.08;23.38;;;;;;;-146.18;100.00;67994.34;10360797;27;20404;-70
2024/03/09 18:35:24;;;;;;;36.85;23.40;;;;;;;-146.18;100.00;67994.34;10356638;27;20067;-70
2024/03/09 18:40:22;;;;;;;35.90;23.48;;;;;;;-146.18;100.00;67994.34;10357514;27;20071;-70
2024/03/09 18:45:23;;;;;;;36.75;22.67;;;;;;;-146.18;100.00;67994.34;10357793;28;20090;-70
2024/03/09 18:50:22;;;;;;;39.13;22.42;;;;;;;-146.18;100.00;67994.34;10363965;27;20117;-70
2024/03/09 18:55:19;;;;;;;41.15;24.27;;;;;;;-146.18;100.00;67994.34;10352171;27;20085;-70
2024/03/09 19:00:17;;;;;;;40.13;23.80;;;;;;;-146.18;100.00;67994.34;10361395;27;20044;-70
2024/03/09 19:05:17;;;;;;;38.45;23.05;;;;;;;-146.18;100.00;67994.34;10355658;27;20058;-72
2024/03/09 19:10:16;;;;;;;38.55;23.63;;;;;;;-146.18;100.00;67994.34;10356890;27;20090;-70
2024/03/09 19:15:12;;;;;;;35.13;22.67;;;;;;;-146.18;100.00;67994.34;10361138;27;20085;-70
2024/03/09 19:25:38;;;;;;;42.65;23.55;;;;;;;-146.18;100.00;67994.34;10343804;27;20499;-69
2024/03/09 19:30:35;;;;;;;34.00;22.75;;;;;;;-146.18;100.00;67994.34;10354512;27;20046;-72
2024/03/09 19:35:32;;;;;;;44.58;26.05;;;;;;;-146.18;100.00;67994.34;10353697;27;20407;-72
2024/03/09 19:40:29;;;;;;;39.65;23.45;;;;;;;-146.18;100.00;67994.34;10356096;27;20036;-71
2024/03/09 19:45:29;;;;;;;38.80;23.73;;;;;;;-146.18;100.00;67994.34;10346392;27;20457;-72
2024/03/09 19:50:27;;;;;;;38.42;23.50;;;;;;;-146.18;100.00;67994.34;10344874;27;20051;-71
2024/03/09 19:55:25;;;;;;;39.60;24.42;;;;;;;-146.18;100.00;67994.34;10352396;27;20097;-72
2024/03/09 20:00:22;;;;;;;41.63;25.10;;;;;;;-146.18;100.00;67994.34;10358080;27;20052;-72
2024/03/09 20:05:20;;;;;;;38.80;23.92;;;;;;;-146.18;100.00;67994.34;10348425;28;20110;-71
2024/03/09 20:10:19;;;;;;;38.85;24.13;;;;;;;-146.18;100.00;67994.34;10355982;27;20526;-71
2024/03/09 20:15:17;;;;;;;41.83;25.08;;;;;;;-146.18;100.00;67994.34;10350910;27;20044;-72
2024/03/09 20:20:16;;;;;;;40.17;24.85;;;;;;;-146.18;100.00;67994.34;10359212;27;20067;-72
2024/03/09 20:25:13;;;;;;;44.78;28.17;;;;;;;-146.18;100.00;67994.34;10356351;27;20043;-71
2024/03/09 20:30:11;;;;;;;38.60;24.98;;;;;;;-146.18;100.00;67994.34;10360415;27;20047;-72
2024/03/09 20:35:10;;;;;;;38.83;24.77;;;;;;;-146.18;100.00;67994.34;10349942;27;20098;-71
2024/03/09 20:40:14;;;;;;;38.53;25.73;;;;;;;-146.18;100.00;67994.34;10357267;27;20077;-71
2024/03/09 20:45:17;;;;;;;38.78;26.05;;;;;;;-146.18;100.00;67994.34;10353908;28;20095;-69
2024/03/09 20:50:16;;;;;;;23.92;16.92;;;;;;;-146.18;100.00;67994.34;10352633;27;20062;-70
2024/03/09 20:55:13;;;;;;;46.40;26.15;;;;;;;-146.18;100.00;67994.34;10353617;27;20135;-72
2024/03/09 21:00:17;;;;;;;47.45;27.92;;;;;;;-146.18;100.00;67994.34;10347793;27;20052;-69
2024/03/09 21:05:14;;;;;;;36.97;25.42;;;;;;;-146.18;100.00;67994.34;10350026;27;20504;-69
2024/03/09 21:10:11;;;;;;;38.85;25.25;;;;;;;-146.18;100.00;67994.34;10363825;27;20089;-69
2024/03/09 21:15:08;;;;;;;37.50;25.25;;;;;;;-146.18;100.00;67994.34;10343671;27;20693;-70
2024/03/09 21:20:11;;;;;;;39.20;23.98;;;;;;;-146.18;100.00;67994.34;10352552;27;20527;-72
2024/03/09 21:25:11;;;;;;;37.63;24.70;;;;;;;-146.18;100.00;67994.34;10339997;27;20048;-70
2024/03/09 21:30:10;;;;;;;38.72;25.38;;;;;;;-146.18;100.00;67994.34;10352095;27;20064;-72
2024/03/09 21:35:13;;;;;;;41.13;25.45;;;;;;;-146.18;100.00;67994.34;10353612;27;20058;-72
2024/03/09 21:40:11;;;;;;;38.13;26.25;;;;;;;-146.18;100.00;67994.34;10357677;27;20540;-71
2024/03/09 21:45:11;;;;;;;42.47;27.48;;;;;;;-146.18;100.00;67994.34;10345447;27;20048;-71
2024/03/09 21:50:11;;;;;;;48.95;27.52;;;;;;;-146.18;100.00;67994.34;10354475;27;20575;-71
2024/03/09 21:55:10;;;;;;;40.88;25.65;;;;;;;-146.18;100.00;67994.34;10349599;27;20052;-71